sensor_id;sensor_type;location;lat;lon;timestamp;P1;durP1;ratioP1;P2;durP2;ratioP2
61785;SDS011;47692;53.714;11.372;2023-07-20T00:02:14;4.70;;;3.38;;
61785;SDS011;47692;53.714;11.372;2023-07-20T00:04:40;5.30;;;4.40;;
61785;SDS011;47692;53.714;11.372;2023-07-20T00:07:05;4.95;;;3.78;;
61785;SDS011;47692;53.714;11.372;2023-07-20T00:09:30;5.55;;;3.78;;
61785;SDS011;47692;53.714;11.372;2023-07-20T00:11:56;5.43;;;4.10;;
61785;SDS011;47692;53.714;11.372;2023-07-20T00:14:21;6.93;;;4.25;;
61785;SDS011;47692;53.714;11.372;2023-07-20T00:16:50;5.47;;;4.20;;
61785;SDS011;47692;53.714;11.372;2023-07-20T00:19:20;4.05;;;3.47;;
61785;SDS011;47692;53.714;11.372;2023-07-20T00:21:49;6.03;;;3.40;;
61785;SDS011;47692;53.714;11.372;2023-07-20T00:24:15;7.32;;;3.80;;
61785;SDS011;47692;53.714;11.372;2023-07-20T00:26:40;8.88;;;4.70;;
61785;SDS011;47692;53.714;11.372;2023-07-20T00:29:06;4.30;;;3.40;;
61785;SDS011;47692;53.714;11.372;2023-07-20T00:31:31;4.32;;;3.55;;
61785;SDS011;47692;53.714;11.372;2023-07-20T00:33:56;4.93;;;3.47;;
61785;SDS011;47692;53.714;11.372;2023-07-20T00:36:22;5.05;;;3.50;;
61785;SDS011;47692;53.714;11.372;2023-07-20T00:38:47;3.95;;;3.50;;
61785;SDS011;47692;53.714;11.372;2023-07-20T00:41:12;3.97;;;3.33;;
61785;SDS011;47692;53.714;11.372;2023-07-20T00:43:38;5.18;;;4.18;;
61785;SDS011;47692;53.714;11.372;2023-07-20T00:46:03;4.85;;;3.55;;
61785;SDS011;47692;53.714;11.372;2023-07-20T00:48:29;5.03;;;3.10;;
61785;SDS011;47692;53.714;11.372;2023-07-20T00:50:56;4.32;;;3.50;;
61785;SDS011;47692;53.714;11.372;2023-07-20T00:53:23;5.13;;;3.58;;
61785;SDS011;47692;53.714;11.372;2023-07-20T00:55:48;6.20;;;3.83;;
61785;SDS011;47692;53.714;11.372;2023-07-20T00:58:13;4.07;;;3.08;;
61785;SDS011;47692;53.714;11.372;2023-07-20T01:00:39;5.10;;;3.53;;
61785;SDS011;47692;53.714;11.372;2023-07-20T01:03:04;3.88;;;2.85;;
61785;SDS011;47692;53.714;11.372;2023-07-20T01:05:38;7.72;;;3.42;;
61785;SDS011;47692;53.714;11.372;2023-07-20T01:08:13;4.65;;;3.17;;
61785;SDS011;47692;53.714;11.372;2023-07-20T01:13:55;5.22;;;3.47;;
61785;SDS011;47692;53.714;11.372;2023-07-20T01:16:21;4.65;;;3.53;;
61785;SDS011;47692;53.714;11.372;2023-07-20T01:18:46;4.80;;;3.50;;
61785;SDS011;47692;53.714;11.372;2023-07-20T01:21:18;7.95;;;3.40;;
61785;SDS011;47692;53.714;11.372;2023-07-20T01:26:41;5.05;;;3.40;;
61785;SDS011;47692;53.714;11.372;2023-07-20T01:31:53;5.20;;;3.17;;
61785;SDS011;47692;53.714;11.372;2023-07-20T01:34:20;3.78;;;3.00;;
61785;SDS011;47692;53.714;11.372;2023-07-20T01:36:47;5.10;;;2.80;;
61785;SDS011;47692;53.714;11.372;2023-07-20T01:39:15;4.95;;;2.65;;
61785;SDS011;47692;53.714;11.372;2023-07-20T01:41:42;4.50;;;2.78;;
61785;SDS011;47692;53.714;11.372;2023-07-20T01:44:08;6.05;;;3.50;;
61785;SDS011;47692;53.714;11.372;2023-07-20T01:46:33;4.82;;;3.20;;
61785;SDS011;47692;53.714;11.372;2023-07-20T01:48:58;7.38;;;3.17;;
61785;SDS011;47692;53.714;11.372;2023-07-20T01:51:24;4.00;;;3.00;;
61785;SDS011;47692;53.714;11.372;2023-07-20T01:53:49;4.95;;;3.25;;
61785;SDS011;47692;53.714;11.372;2023-07-20T01:56:14;4.93;;;3.20;;
61785;SDS011;47692;53.714;11.372;2023-07-20T01:58:40;3.80;;;2.97;;
61785;SDS011;47692;53.714;11.372;2023-07-20T03:42:01;4.78;;;2.90;;
61785;SDS011;47692;53.714;11.372;2023-07-20T03:44:27;4.60;;;2.67;;
61785;SDS011;47692;53.714;11.372;2023-07-20T03:46:52;4.05;;;2.95;;
61785;SDS011;47692;53.714;11.372;2023-07-20T03:49:17;5.80;;;2.63;;
61785;SDS011;47692;53.714;11.372;2023-07-20T03:51:43;5.45;;;2.75;;
61785;SDS011;47692;53.714;11.372;2023-07-20T03:54:08;4.25;;;2.80;;
61785;SDS011;47692;53.714;11.372;2023-07-20T03:56:34;5.25;;;2.60;;
61785;SDS011;47692;53.714;11.372;2023-07-20T03:59:00;6.10;;;3.10;;
61785;SDS011;47692;53.714;11.372;2023-07-20T04:01:26;6.68;;;2.78;;
61785;SDS011;47692;53.714;11.372;2023-07-20T04:03:51;5.68;;;3.40;;
61785;SDS011;47692;53.714;11.372;2023-07-20T04:06:17;4.30;;;3.00;;
61785;SDS011;47692;53.714;11.372;2023-07-20T04:08:42;6.30;;;2.47;;
61785;SDS011;47692;53.714;11.372;2023-07-20T04:11:08;4.40;;;3.05;;
61785;SDS011;47692;53.714;11.372;2023-07-20T04:13:33;3.60;;;2.67;;
61785;SDS011;47692;53.714;11.372;2023-07-20T04:15:59;7.78;;;3.25;;
61785;SDS011;47692;53.714;11.372;2023-07-20T04:18:25;5.85;;;3.00;;
61785;SDS011;47692;53.714;11.372;2023-07-20T04:20:50;4.43;;;2.83;;
61785;SDS011;47692;53.714;11.372;2023-07-20T04:23:16;5.32;;;3.20;;
61785;SDS011;47692;53.714;11.372;2023-07-20T04:25:42;4.82;;;2.80;;
61785;SDS011;47692;53.714;11.372;2023-07-20T04:28:09;4.32;;;2.70;;
61785;SDS011;47692;53.714;11.372;2023-07-20T04:30:35;6.47;;;3.40;;
61785;SDS011;47692;53.714;11.372;2023-07-20T04:33:01;5.57;;;3.20;;
61785;SDS011;47692;53.714;11.372;2023-07-20T04:35:46;5.78;;;3.65;;
61785;SDS011;47692;53.714;11.372;2023-07-20T04:38:16;8.02;;;3.42;;
61785;SDS011;47692;53.714;11.372;2023-07-20T04:40:46;4.85;;;2.80;;
61785;SDS011;47692;53.714;11.372;2023-07-20T04:43:16;6.10;;;3.38;;
61785;SDS011;47692;53.714;11.372;2023-07-20T04:45:42;5.60;;;2.78;;
61785;SDS011;47692;53.714;11.372;2023-07-20T04:48:11;3.65;;;2.67;;
61785;SDS011;47692;53.714;11.372;2023-07-20T04:50:40;5.38;;;3.35;;
61785;SDS011;47692;53.714;11.372;2023-07-20T04:53:07;5.18;;;3.33;;
61785;SDS011;47692;53.714;11.372;2023-07-20T04:55:35;3.80;;;3.05;;
61785;SDS011;47692;53.714;11.372;2023-07-20T04:58:02;8.60;;;3.20;;
61785;SDS011;47692;53.714;11.372;2023-07-20T05:00:28;6.20;;;3.78;;
61785;SDS011;47692;53.714;11.372;2023-07-20T05:02:54;11.05;;;3.20;;
61785;SDS011;47692;53.714;11.372;2023-07-20T05:05:20;5.03;;;2.72;;
61785;SDS011;47692;53.714;11.372;2023-07-20T05:07:45;4.43;;;2.70;;
61785;SDS011;47692;53.714;11.372;2023-07-20T05:10:11;4.35;;;2.42;;
61785;SDS011;47692;53.714;11.372;2023-07-20T05:12:36;3.90;;;2.85;;
61785;SDS011;47692;53.714;11.372;2023-07-20T05:15:02;5.70;;;2.72;;
61785;SDS011;47692;53.714;11.372;2023-07-20T05:17:28;5.60;;;2.70;;
61785;SDS011;47692;53.714;11.372;2023-07-20T05:19:53;6.07;;;2.30;;
61785;SDS011;47692;53.714;11.372;2023-07-20T05:22:19;5.90;;;2.63;;
61785;SDS011;47692;53.714;11.372;2023-07-20T05:24:44;7.25;;;2.80;;
61785;SDS011;47692;53.714;11.372;2023-07-20T05:27:10;4.07;;;2.53;;
61785;SDS011;47692;53.714;11.372;2023-07-20T05:29:35;5.32;;;2.53;;
61785;SDS011;47692;53.714;11.372;2023-07-20T05:35:22;2.90;;;2.13;;
61785;SDS011;47692;53.714;11.372;2023-07-20T05:41:09;4.80;;;2.13;;
61785;SDS011;47692;53.714;11.372;2023-07-20T05:43:35;3.55;;;1.92;;
61785;SDS011;47692;53.714;11.372;2023-07-20T05:46:00;3.47;;;2.05;;
61785;SDS011;47692;53.714;11.372;2023-07-20T05:48:26;4.10;;;1.90;;
61785;SDS011;47692;53.714;11.372;2023-07-20T05:50:51;5.18;;;1.70;;
61785;SDS011;47692;53.714;11.372;2023-07-20T05:53:17;4.45;;;2.00;;
61785;SDS011;47692;53.714;11.372;2023-07-20T05:55:42;3.20;;;1.70;;
61785;SDS011;47692;53.714;11.372;2023-07-20T05:58:07;3.10;;;1.85;;
61785;SDS011;47692;53.714;11.372;2023-07-20T06:00:33;4.03;;;1.75;;
61785;SDS011;47692;53.714;11.372;2023-07-20T06:02:58;3.47;;;1.50;;
61785;SDS011;47692;53.714;11.372;2023-07-20T06:08:58;3.28;;;1.33;;
61785;SDS011;47692;53.714;11.372;2023-07-20T06:11:28;2.20;;;1.60;;
61785;SDS011;47692;53.714;11.372;2023-07-20T06:13:54;1.90;;;1.20;;
61785;SDS011;47692;53.714;11.372;2023-07-20T06:16:19;2.08;;;1.20;;
61785;SDS011;47692;53.714;11.372;2023-07-20T06:18:45;2.67;;;1.30;;
61785;SDS011;47692;53.714;11.372;2023-07-20T06:21:10;4.00;;;1.15;;
61785;SDS011;47692;53.714;11.372;2023-07-20T06:23:36;3.97;;;1.05;;
61785;SDS011;47692;53.714;11.372;2023-07-20T06:26:01;3.45;;;1.25;;
61785;SDS011;47692;53.714;11.372;2023-07-20T06:28:26;1.55;;;0.90;;
61785;SDS011;47692;53.714;11.372;2023-07-20T06:30:51;1.98;;;0.88;;
61785;SDS011;47692;53.714;11.372;2023-07-20T06:33:17;3.75;;;1.10;;
61785;SDS011;47692;53.714;11.372;2023-07-20T06:35:42;1.77;;;1.35;;
61785;SDS011;47692;53.714;11.372;2023-07-20T06:38:08;1.33;;;0.88;;
61785;SDS011;47692;53.714;11.372;2023-07-20T06:40:33;2.45;;;1.17;;
61785;SDS011;47692;53.714;11.372;2023-07-20T06:42:58;1.15;;;0.80;;
61785;SDS011;47692;53.714;11.372;2023-07-20T06:45:24;3.72;;;0.93;;
61785;SDS011;47692;53.714;11.372;2023-07-20T06:47:49;1.75;;;0.75;;
61785;SDS011;47692;53.714;11.372;2023-07-20T06:50:14;0.85;;;0.60;;
61785;SDS011;47692;53.714;11.372;2023-07-20T06:52:40;2.97;;;1.00;;
61785;SDS011;47692;53.714;11.372;2023-07-20T06:55:06;1.77;;;0.80;;
61785;SDS011;47692;53.714;11.372;2023-07-20T06:57:32;2.28;;;1.00;;
61785;SDS011;47692;53.714;11.372;2023-07-20T06:59:57;2.45;;;0.80;;
61785;SDS011;47692;53.714;11.372;2023-07-20T07:02:22;3.47;;;0.80;;
61785;SDS011;47692;53.714;11.372;2023-07-20T07:04:48;1.33;;;0.65;;
61785;SDS011;47692;53.714;11.372;2023-07-20T07:07:14;1.83;;;0.60;;
61785;SDS011;47692;53.714;11.372;2023-07-20T07:09:39;1.85;;;0.60;;
61785;SDS011;47692;53.714;11.372;2023-07-20T07:12:05;1.73;;;0.77;;
61785;SDS011;47692;53.714;11.372;2023-07-20T07:14:30;1.10;;;0.60;;
61785;SDS011;47692;53.714;11.372;2023-07-20T07:16:56;1.65;;;0.73;;
61785;SDS011;47692;53.714;11.372;2023-07-20T07:19:21;1.05;;;0.60;;
61785;SDS011;47692;53.714;11.372;2023-07-20T07:21:46;3.42;;;0.65;;
61785;SDS011;47692;53.714;11.372;2023-07-20T07:24:12;1.00;;;0.73;;
61785;SDS011;47692;53.714;11.372;2023-07-20T07:26:37;1.40;;;0.80;;
61785;SDS011;47692;53.714;11.372;2023-07-20T07:29:03;1.63;;;0.77;;
61785;SDS011;47692;53.714;11.372;2023-07-20T07:31:29;3.13;;;0.75;;
61785;SDS011;47692;53.714;11.372;2023-07-20T07:33:55;1.70;;;0.60;;
61785;SDS011;47692;53.714;11.372;2023-07-20T07:36:21;2.97;;;1.15;;
61785;SDS011;47692;53.714;11.372;2023-07-20T07:38:46;1.48;;;0.70;;
61785;SDS011;47692;53.714;11.372;2023-07-20T07:41:12;0.95;;;0.68;;
61785;SDS011;47692;53.714;11.372;2023-07-20T07:43:37;2.08;;;0.60;;
61785;SDS011;47692;53.714;11.372;2023-07-20T07:46:03;2.67;;;1.10;;
61785;SDS011;47692;53.714;11.372;2023-07-20T07:48:29;1.27;;;0.65;;
61785;SDS011;47692;53.714;11.372;2023-07-20T07:50:54;1.15;;;0.77;;
61785;SDS011;47692;53.714;11.372;2023-07-20T07:53:19;1.95;;;0.73;;
61785;SDS011;47692;53.714;11.372;2023-07-20T07:55:47;3.78;;;0.63;;
61785;SDS011;47692;53.714;11.372;2023-07-20T07:58:12;2.53;;;0.88;;
61785;SDS011;47692;53.714;11.372;2023-07-20T08:00:38;2.72;;;0.63;;
61785;SDS011;47692;53.714;11.372;2023-07-20T08:03:05;1.48;;;0.40;;
61785;SDS011;47692;53.714;11.372;2023-07-20T08:05:32;1.73;;;0.68;;
61785;SDS011;47692;53.714;11.372;2023-07-20T08:07:57;1.73;;;0.60;;
61785;SDS011;47692;53.714;11.372;2023-07-20T08:10:22;1.38;;;0.50;;
61785;SDS011;47692;53.714;11.372;2023-07-20T08:12:48;1.52;;;0.75;;
61785;SDS011;47692;53.714;11.372;2023-07-20T08:15:13;1.85;;;0.60;;
61785;SDS011;47692;53.714;11.372;2023-07-20T08:17:40;1.33;;;0.68;;
61785;SDS011;47692;53.714;11.372;2023-07-20T08:20:06;7.72;;;0.90;;
61785;SDS011;47692;53.714;11.372;2023-07-20T08:22:34;1.77;;;0.88;;
61785;SDS011;47692;53.714;11.372;2023-07-20T08:25:00;1.50;;;0.90;;
61785;SDS011;47692;53.714;11.372;2023-07-20T08:27:25;1.35;;;1.00;;
61785;SDS011;47692;53.714;11.372;2023-07-20T08:29:50;2.15;;;1.23;;
61785;SDS011;47692;53.714;11.372;2023-07-20T08:32:16;1.38;;;1.05;;
61785;SDS011;47692;53.714;11.372;2023-07-20T08:34:41;3.50;;;1.60;;
61785;SDS011;47692;53.714;11.372;2023-07-20T08:37:07;2.78;;;1.25;;
61785;SDS011;47692;53.714;11.372;2023-07-20T08:39:34;4.20;;;1.38;;
61785;SDS011;47692;53.714;11.372;2023-07-20T08:42:00;2.75;;;1.40;;
61785;SDS011;47692;53.714;11.372;2023-07-20T08:44:29;1.67;;;1.30;;
61785;SDS011;47692;53.714;11.372;2023-07-20T08:46:57;3.50;;;1.30;;
61785;SDS011;47692;53.714;11.372;2023-07-20T08:49:23;3.33;;;1.40;;
61785;SDS011;47692;53.714;11.372;2023-07-20T08:51:52;1.60;;;1.30;;
61785;SDS011;47692;53.714;11.372;2023-07-20T08:54:18;3.67;;;1.30;;
61785;SDS011;47692;53.714;11.372;2023-07-20T08:56:43;1.95;;;1.13;;
61785;SDS011;47692;53.714;11.372;2023-07-20T08:59:10;1.65;;;0.93;;
61785;SDS011;47692;53.714;11.372;2023-07-20T09:01:38;4.50;;;1.10;;
61785;SDS011;47692;53.714;11.372;2023-07-20T09:04:04;2.83;;;1.25;;
61785;SDS011;47692;53.714;11.372;2023-07-20T09:06:29;2.55;;;1.23;;
61785;SDS011;47692;53.714;11.372;2023-07-20T09:08:55;1.90;;;0.88;;
61785;SDS011;47692;53.714;11.372;2023-07-20T09:11:21;3.65;;;1.00;;
61785;SDS011;47692;53.714;11.372;2023-07-20T09:17:07;2.22;;;1.05;;
61785;SDS011;47692;53.714;11.372;2023-07-20T09:19:38;2.35;;;1.10;;
61785;SDS011;47692;53.714;11.372;2023-07-20T09:22:03;5.40;;;1.27;;
61785;SDS011;47692;53.714;11.372;2023-07-20T09:24:30;1.40;;;1.00;;
61785;SDS011;47692;53.714;11.372;2023-07-20T09:26:57;2.15;;;1.20;;
61785;SDS011;47692;53.714;11.372;2023-07-20T09:29:26;7.10;;;1.30;;
61785;SDS011;47692;53.714;11.372;2023-07-20T09:31:58;3.83;;;1.50;;
61785;SDS011;47692;53.714;11.372;2023-07-20T09:34:28;3.28;;;1.52;;
61785;SDS011;47692;53.714;11.372;2023-07-20T09:36:55;5.57;;;1.50;;
61785;SDS011;47692;53.714;11.372;2023-07-20T09:39:20;2.40;;;1.50;;
61785;SDS011;47692;53.714;11.372;2023-07-20T09:41:46;5.35;;;1.40;;
61785;SDS011;47692;53.714;11.372;2023-07-20T09:44:12;3.28;;;1.63;;
61785;SDS011;47692;53.714;11.372;2023-07-20T09:46:48;4.82;;;2.17;;
61785;SDS011;47692;53.714;11.372;2023-07-20T09:49:17;2.67;;;1.70;;
61785;SDS011;47692;53.714;11.372;2023-07-20T09:51:43;4.20;;;1.65;;
61785;SDS011;47692;53.714;11.372;2023-07-20T09:54:10;3.88;;;1.52;;
61785;SDS011;47692;53.714;11.372;2023-07-20T09:56:36;2.25;;;1.30;;
61785;SDS011;47692;53.714;11.372;2023-07-20T09:59:03;2.88;;;1.40;;
61785;SDS011;47692;53.714;11.372;2023-07-20T10:01:29;1.70;;;1.00;;
61785;SDS011;47692;53.714;11.372;2023-07-20T10:03:55;2.90;;;1.15;;
61785;SDS011;47692;53.714;11.372;2023-07-20T10:06:23;2.45;;;1.13;;
61785;SDS011;47692;53.714;11.372;2023-07-20T10:08:52;3.38;;;1.40;;
61785;SDS011;47692;53.714;11.372;2023-07-20T10:11:18;4.13;;;1.42;;
61785;SDS011;47692;53.714;11.372;2023-07-20T10:13:46;6.93;;;1.20;;
61785;SDS011;47692;53.714;11.372;2023-07-20T10:16:15;2.67;;;0.80;;
61785;SDS011;47692;53.714;11.372;2023-07-20T10:18:55;2.92;;;1.10;;
61785;SDS011;47692;53.714;11.372;2023-07-20T10:21:29;2.63;;;1.20;;
61785;SDS011;47692;53.714;11.372;2023-07-20T10:23:57;5.00;;;1.40;;
61785;SDS011;47692;53.714;11.372;2023-07-20T10:26:25;6.03;;;1.40;;
61785;SDS011;47692;53.714;11.372;2023-07-20T10:28:51;3.92;;;1.30;;
61785;SDS011;47692;53.714;11.372;2023-07-20T10:31:16;4.07;;;1.13;;
61785;SDS011;47692;53.714;11.372;2023-07-20T10:33:42;3.72;;;1.70;;
61785;SDS011;47692;53.714;11.372;2023-07-20T10:36:09;3.78;;;1.40;;
61785;SDS011;47692;53.714;11.372;2023-07-20T10:43:47;5.50;;;1.42;;
61785;SDS011;47692;53.714;11.372;2023-07-20T10:46:13;4.43;;;1.35;;
61785;SDS011;47692;53.714;11.372;2023-07-20T10:51:24;3.35;;;1.13;;
61785;SDS011;47692;53.714;11.372;2023-07-20T10:53:49;2.40;;;1.00;;
61785;SDS011;47692;53.714;11.372;2023-07-20T10:56:19;1.52;;;0.55;;
61785;SDS011;47692;53.714;11.372;2023-07-20T10:58:45;2.75;;;0.80;;
61785;SDS011;47692;53.714;11.372;2023-07-20T11:01:14;2.22;;;0.68;;
61785;SDS011;47692;53.714;11.372;2023-07-20T11:03:41;1.05;;;0.65;;
61785;SDS011;47692;53.714;11.372;2023-07-20T11:11:30;2.20;;;0.80;;
61785;SDS011;47692;53.714;11.372;2023-07-20T11:14:00;3.75;;;0.80;;
61785;SDS011;47692;53.714;11.372;2023-07-20T11:19:50;2.33;;;0.80;;
61785;SDS011;47692;53.714;11.372;2023-07-20T11:22:20;2.97;;;1.20;;
61785;SDS011;47692;53.714;11.372;2023-07-20T11:24:46;3.25;;;0.88;;
61785;SDS011;47692;53.714;11.372;2023-07-20T11:30:36;3.03;;;0.98;;
61785;SDS011;47692;53.714;11.372;2023-07-20T11:33:03;2.30;;;0.90;;
61785;SDS011;47692;53.714;11.372;2023-07-20T11:35:29;2.35;;;0.75;;
61785;SDS011;47692;53.714;11.372;2023-07-20T11:37:54;3.28;;;0.82;;
61785;SDS011;47692;53.714;11.372;2023-07-20T11:40:20;4.38;;;1.17;;
61785;SDS011;47692;53.714;11.372;2023-07-20T11:42:45;0.90;;;0.60;;
61785;SDS011;47692;53.714;11.372;2023-07-20T11:45:11;1.80;;;0.73;;
61785;SDS011;47692;53.714;11.372;2023-07-20T11:47:39;1.73;;;0.70;;
61785;SDS011;47692;53.714;11.372;2023-07-20T11:53:28;2.38;;;0.93;;
61785;SDS011;47692;53.714;11.372;2023-07-20T12:09:21;0.93;;;0.28;;
61785;SDS011;47692;53.714;11.372;2023-07-20T12:11:49;1.85;;;0.40;;
61785;SDS011;47692;53.714;11.372;2023-07-20T12:14:14;0.57;;;0.38;;
61785;SDS011;47692;53.714;11.372;2023-07-20T12:16:40;1.67;;;0.82;;
61785;SDS011;47692;53.714;11.372;2023-07-20T12:19:09;1.27;;;0.40;;
61785;SDS011;47692;53.714;11.372;2023-07-20T12:21:37;1.35;;;0.47;;
61785;SDS011;47692;53.714;11.372;2023-07-20T12:24:04;1.55;;;0.63;;
61785;SDS011;47692;53.714;11.372;2023-07-20T12:26:30;1.42;;;0.50;;
61785;SDS011;47692;53.714;11.372;2023-07-20T12:28:56;2.47;;;0.68;;
61785;SDS011;47692;53.714;11.372;2023-07-20T12:31:22;2.45;;;0.60;;
61785;SDS011;47692;53.714;11.372;2023-07-20T12:33:49;1.85;;;0.70;;
61785;SDS011;47692;53.714;11.372;2023-07-20T12:36:15;1.73;;;0.55;;
61785;SDS011;47692;53.714;11.372;2023-07-20T12:38:41;1.70;;;0.60;;
61785;SDS011;47692;53.714;11.372;2023-07-20T12:41:07;1.75;;;0.40;;
61785;SDS011;47692;53.714;11.372;2023-07-20T12:43:33;2.17;;;0.65;;
61785;SDS011;47692;53.714;11.372;2023-07-20T12:45:59;1.17;;;0.40;;
61785;SDS011;47692;53.714;11.372;2023-07-20T12:48:24;1.63;;;0.40;;
61785;SDS011;47692;53.714;11.372;2023-07-20T12:50:50;2.00;;;0.50;;
61785;SDS011;47692;53.714;11.372;2023-07-20T12:53:16;1.30;;;0.30;;
61785;SDS011;47692;53.714;11.372;2023-07-20T12:55:41;2.60;;;0.40;;
61785;SDS011;47692;53.714;11.372;2023-07-20T12:58:07;2.92;;;0.40;;
61785;SDS011;47692;53.714;11.372;2023-07-20T13:00:33;4.03;;;0.50;;
61785;SDS011;47692;53.714;11.372;2023-07-20T13:02:59;2.35;;;0.50;;
61785;SDS011;47692;53.714;11.372;2023-07-20T13:05:24;2.85;;;0.40;;
61785;SDS011;47692;53.714;11.372;2023-07-20T13:07:50;2.80;;;0.57;;
61785;SDS011;47692;53.714;11.372;2023-07-20T13:10:15;2.10;;;0.50;;
61785;SDS011;47692;53.714;11.372;2023-07-20T13:12:41;5.13;;;0.90;;
61785;SDS011;47692;53.714;11.372;2023-07-20T13:15:06;3.08;;;0.40;;
61785;SDS011;47692;53.714;11.372;2023-07-20T13:17:36;3.15;;;0.40;;
61785;SDS011;47692;53.714;11.372;2023-07-20T13:20:03;1.25;;;0.43;;
61785;SDS011;47692;53.714;11.372;2023-07-20T13:22:35;1.40;;;0.50;;
61785;SDS011;47692;53.714;11.372;2023-07-20T13:25:00;2.03;;;0.43;;
61785;SDS011;47692;53.714;11.372;2023-07-20T13:27:26;1.83;;;0.47;;
61785;SDS011;47692;53.714;11.372;2023-07-20T13:29:51;3.22;;;0.57;;
61785;SDS011;47692;53.714;11.372;2023-07-20T13:32:17;3.63;;;0.60;;
61785;SDS011;47692;53.714;11.372;2023-07-20T13:34:46;4.35;;;0.50;;
61785;SDS011;47692;53.714;11.372;2023-07-20T13:37:12;0.50;;;0.35;;
61785;SDS011;47692;53.714;11.372;2023-07-20T13:39:37;0.50;;;0.22;;
61785;SDS011;47692;53.714;11.372;2023-07-20T13:42:03;2.95;;;0.45;;
61785;SDS011;47692;53.714;11.372;2023-07-20T13:44:32;2.33;;;0.40;;
61785;SDS011;47692;53.714;11.372;2023-07-20T13:46:57;2.50;;;0.50;;
61785;SDS011;47692;53.714;11.372;2023-07-20T13:49:23;0.45;;;0.20;;
61785;SDS011;47692;53.714;11.372;2023-07-20T13:51:48;2.17;;;0.30;;
61785;SDS011;47692;53.714;11.372;2023-07-20T13:54:14;4.95;;;0.35;;
61785;SDS011;47692;53.714;11.372;2023-07-20T13:56:39;2.17;;;0.30;;
61785;SDS011;47692;53.714;11.372;2023-07-20T13:59:04;1.15;;;0.40;;
61785;SDS011;47692;53.714;11.372;2023-07-20T14:01:30;2.78;;;0.38;;
61785;SDS011;47692;53.714;11.372;2023-07-20T14:03:57;2.22;;;0.50;;
61785;SDS011;47692;53.714;11.372;2023-07-20T14:06:23;1.88;;;0.40;;
61785;SDS011;47692;53.714;11.372;2023-07-20T14:08:48;1.38;;;0.30;;
61785;SDS011;47692;53.714;11.372;2023-07-20T14:11:14;1.42;;;0.40;;
61785;SDS011;47692;53.714;11.372;2023-07-20T14:13:40;1.77;;;0.40;;
61785;SDS011;47692;53.714;11.372;2023-07-20T14:16:05;3.88;;;0.40;;
61785;SDS011;47692;53.714;11.372;2023-07-20T14:18:31;4.30;;;0.68;;
61785;SDS011;47692;53.714;11.372;2023-07-20T14:20:56;2.13;;;0.70;;
61785;SDS011;47692;53.714;11.372;2023-07-20T14:23:22;2.38;;;0.57;;
61785;SDS011;47692;53.714;11.372;2023-07-20T14:25:47;7.65;;;0.90;;
61785;SDS011;47692;53.714;11.372;2023-07-20T14:28:13;4.80;;;0.90;;
61785;SDS011;47692;53.714;11.372;2023-07-20T14:30:39;3.80;;;0.88;;
61785;SDS011;47692;53.714;11.372;2023-07-20T14:33:05;1.75;;;0.50;;
61785;SDS011;47692;53.714;11.372;2023-07-20T14:35:30;3.13;;;0.40;;
61785;SDS011;47692;53.714;11.372;2023-07-20T14:37:55;2.35;;;0.40;;
61785;SDS011;47692;53.714;11.372;2023-07-20T14:40:22;1.40;;;0.50;;
61785;SDS011;47692;53.714;11.372;2023-07-20T14:42:47;2.90;;;0.30;;
61785;SDS011;47692;53.714;11.372;2023-07-20T14:45:13;2.03;;;0.30;;
61785;SDS011;47692;53.714;11.372;2023-07-20T14:47:39;3.28;;;0.50;;
61785;SDS011;47692;53.714;11.372;2023-07-20T14:50:05;3.53;;;0.40;;
61785;SDS011;47692;53.714;11.372;2023-07-20T14:52:30;1.88;;;0.60;;
61785;SDS011;47692;53.714;11.372;2023-07-20T14:54:56;1.50;;;0.60;;
61785;SDS011;47692;53.714;11.372;2023-07-20T14:57:21;1.38;;;0.60;;
61785;SDS011;47692;53.714;11.372;2023-07-20T14:59:48;1.95;;;0.50;;
61785;SDS011;47692;53.714;11.372;2023-07-20T15:02:14;2.22;;;0.63;;
61785;SDS011;47692;53.714;11.372;2023-07-20T15:04:49;3.50;;;0.70;;
61785;SDS011;47692;53.714;11.372;2023-07-20T15:07:16;1.52;;;0.60;;
61785;SDS011;47692;53.714;11.372;2023-07-20T15:09:43;2.90;;;0.40;;
61785;SDS011;47692;53.714;11.372;2023-07-20T15:12:09;1.88;;;0.50;;
61785;SDS011;47692;53.714;11.372;2023-07-20T15:14:35;3.50;;;0.32;;
61785;SDS011;47692;53.714;11.372;2023-07-20T15:17:00;2.92;;;0.80;;
61785;SDS011;47692;53.714;11.372;2023-07-20T15:19:26;1.27;;;0.40;;
61785;SDS011;47692;53.714;11.372;2023-07-20T15:21:51;3.65;;;0.70;;
61785;SDS011;47692;53.714;11.372;2023-07-20T15:24:16;2.70;;;0.80;;
61785;SDS011;47692;53.714;11.372;2023-07-20T15:26:42;3.28;;;1.00;;
61785;SDS011;47692;53.714;11.372;2023-07-20T15:29:07;2.13;;;0.50;;
61785;SDS011;47692;53.714;11.372;2023-07-20T15:31:33;1.45;;;0.60;;
61785;SDS011;47692;53.714;11.372;2023-07-20T15:33:58;2.47;;;0.43;;
61785;SDS011;47692;53.714;11.372;2023-07-20T15:36:24;1.77;;;0.50;;
61785;SDS011;47692;53.714;11.372;2023-07-20T15:38:49;1.95;;;0.60;;
61785;SDS011;47692;53.714;11.372;2023-07-20T15:41:14;1.23;;;0.40;;
61785;SDS011;47692;53.714;11.372;2023-07-20T15:43:40;1.05;;;0.30;;
61785;SDS011;47692;53.714;11.372;2023-07-20T15:46:48;0.65;;;0.30;;
61785;SDS011;47692;53.714;11.372;2023-07-20T15:49:08;1.60;;;0.38;;
61785;SDS011;47692;53.714;11.372;2023-07-20T15:51:34;1.50;;;0.30;;
61785;SDS011;47692;53.714;11.372;2023-07-20T15:54:06;1.15;;;0.40;;
61785;SDS011;47692;53.714;11.372;2023-07-20T15:56:34;2.20;;;0.30;;
61785;SDS011;47692;53.714;11.372;2023-07-20T15:58:59;1.10;;;0.40;;
61785;SDS011;47692;53.714;11.372;2023-07-20T16:01:25;2.67;;;0.45;;
61785;SDS011;47692;53.714;11.372;2023-07-20T16:03:50;1.25;;;0.30;;
61785;SDS011;47692;53.714;11.372;2023-07-20T16:06:15;3.47;;;0.57;;
61785;SDS011;47692;53.714;11.372;2023-07-20T16:08:41;1.98;;;0.40;;
61785;SDS011;47692;53.714;11.372;2023-07-20T16:11:06;3.92;;;0.73;;
61785;SDS011;47692;53.714;11.372;2023-07-20T16:13:31;3.13;;;0.68;;
61785;SDS011;47692;53.714;11.372;2023-07-20T16:15:57;2.40;;;0.60;;
61785;SDS011;47692;53.714;11.372;2023-07-20T16:18:22;3.72;;;0.77;;
61785;SDS011;47692;53.714;11.372;2023-07-20T16:20:47;1.95;;;0.40;;
61785;SDS011;47692;53.714;11.372;2023-07-20T16:23:13;3.03;;;0.68;;
61785;SDS011;47692;53.714;11.372;2023-07-20T16:25:38;2.85;;;0.50;;
61785;SDS011;47692;53.714;11.372;2023-07-20T16:28:04;1.15;;;0.68;;
61785;SDS011;47692;53.714;11.372;2023-07-20T16:30:29;2.03;;;0.40;;
61785;SDS011;47692;53.714;11.372;2023-07-20T16:32:55;1.20;;;0.40;;
61785;SDS011;47692;53.714;11.372;2023-07-20T16:35:21;1.65;;;0.73;;
61785;SDS011;47692;53.714;11.372;2023-07-20T16:37:46;1.67;;;0.43;;
61785;SDS011;47692;53.714;11.372;2023-07-20T16:40:11;4.20;;;0.80;;
61785;SDS011;47692;53.714;11.372;2023-07-20T16:42:38;3.63;;;0.60;;
61785;SDS011;47692;53.714;11.372;2023-07-20T16:45:04;2.55;;;0.65;;
61785;SDS011;47692;53.714;11.372;2023-07-20T16:47:29;4.03;;;1.10;;
61785;SDS011;47692;53.714;11.372;2023-07-20T16:49:55;4.85;;;0.68;;
61785;SDS011;47692;53.714;11.372;2023-07-20T16:52:20;2.97;;;0.52;;
61785;SDS011;47692;53.714;11.372;2023-07-20T16:54:46;1.73;;;0.65;;
61785;SDS011;47692;53.714;11.372;2023-07-20T16:57:11;2.97;;;0.60;;
61785;SDS011;47692;53.714;11.372;2023-07-20T16:59:37;1.42;;;0.50;;
61785;SDS011;47692;53.714;11.372;2023-07-20T17:02:02;1.25;;;0.60;;
61785;SDS011;47692;53.714;11.372;2023-07-20T17:04:28;1.00;;;0.40;;
61785;SDS011;47692;53.714;11.372;2023-07-20T17:06:53;1.40;;;0.45;;
61785;SDS011;47692;53.714;11.372;2023-07-20T17:09:18;2.25;;;0.55;;